sensor_id;sensor_type;location;lat;lon;timestamp;P1;durP1;ratioP1;P2;durP2;ratioP2
25503;SDS011;13410;52.114;5.718;2023-06-26T00:02:25;16.70;;;15.00;;
25503;SDS011;13410;52.114;5.718;2023-06-26T00:04:50;17.60;;;14.63;;
25503;SDS011;13410;52.114;5.718;2023-06-26T00:07:18;15.93;;;14.32;;
25503;SDS011;13410;52.114;5.718;2023-06-26T00:09:44;16.52;;;14.82;;
25503;SDS011;13410;52.114;5.718;2023-06-26T00:12:10;17.45;;;14.27;;
25503;SDS011;13410;52.114;5.718;2023-06-26T00:14:36;15.68;;;14.07;;
25503;SDS011;13410;52.114;5.718;2023-06-26T00:17:02;15.18;;;13.68;;
25503;SDS011;13410;52.114;5.718;2023-06-26T00:19:27;13.13;;;11.90;;
25503;SDS011;13410;52.114;5.718;2023-06-26T00:21:58;10.23;;;9.23;;
25503;SDS011;13410;52.114;5.718;2023-06-26T00:24:23;12.10;;;11.00;;
25503;SDS011;13410;52.114;5.718;2023-06-26T00:26:58;14.77;;;11.50;;
25503;SDS011;13410;52.114;5.718;2023-06-26T00:29:32;11.55;;;10.43;;
25503;SDS011;13410;52.114;5.718;2023-06-26T00:31:58;12.95;;;11.65;;
25503;SDS011;13410;52.114;5.718;2023-06-26T00:34:23;12.80;;;11.15;;
25503;SDS011;13410;52.114;5.718;2023-06-26T00:36:49;13.73;;;10.90;;
25503;SDS011;13410;52.114;5.718;2023-06-26T00:39:15;10.18;;;8.23;;
25503;SDS011;13410;52.114;5.718;2023-06-26T00:41:40;13.15;;;11.82;;
25503;SDS011;13410;52.114;5.718;2023-06-26T00:44:21;9.45;;;8.55;;
25503;SDS011;13410;52.114;5.718;2023-06-26T00:47:02;12.35;;;10.40;;
25503;SDS011;13410;52.114;5.718;2023-06-26T00:49:28;11.73;;;10.55;;
25503;SDS011;13410;52.114;5.718;2023-06-26T00:52:10;11.80;;;10.60;;
25503;SDS011;13410;52.114;5.718;2023-06-26T00:54:38;10.75;;;9.75;;
25503;SDS011;13410;52.114;5.718;2023-06-26T00:57:04;11.57;;;10.38;;
25503;SDS011;13410;52.114;5.718;2023-06-26T00:59:30;10.23;;;8.82;;
25503;SDS011;13410;52.114;5.718;2023-06-26T01:01:55;10.02;;;7.93;;
25503;SDS011;13410;52.114;5.718;2023-06-26T01:04:50;9.32;;;7.90;;
25503;SDS011;13410;52.114;5.718;2023-06-26T01:07:16;10.15;;;9.15;;
25503;SDS011;13410;52.114;5.718;2023-06-26T01:09:46;9.43;;;8.52;;
25503;SDS011;13410;52.114;5.718;2023-06-26T01:15:00;9.82;;;8.82;;
25503;SDS011;13410;52.114;5.718;2023-06-26T01:17:27;11.77;;;10.55;;
25503;SDS011;13410;52.114;5.718;2023-06-26T01:19:56;9.88;;;8.95;;
25503;SDS011;13410;52.114;5.718;2023-06-26T01:28:09;14.70;;;11.40;;
25503;SDS011;13410;52.114;5.718;2023-06-26T01:30:37;13.52;;;10.55;;
25503;SDS011;13410;52.114;5.718;2023-06-26T01:33:05;10.98;;;9.93;;
25503;SDS011;13410;52.114;5.718;2023-06-26T01:35:31;11.90;;;10.40;;
25503;SDS011;13410;52.114;5.718;2023-06-26T01:38:16;10.73;;;9.63;;
25503;SDS011;13410;52.114;5.718;2023-06-26T01:40:43;10.30;;;9.23;;
25503;SDS011;13410;52.114;5.718;2023-06-26T01:46:25;11.25;;;10.10;;
25503;SDS011;13410;52.114;5.718;2023-06-26T01:49:21;12.35;;;10.57;;
25503;SDS011;13410;52.114;5.718;2023-06-26T01:54:41;11.10;;;10.00;;
25503;SDS011;13410;52.114;5.718;2023-06-26T01:57:18;11.93;;;9.48;;
25503;SDS011;13410;52.114;5.718;2023-06-26T01:59:47;12.52;;;9.55;;
25503;SDS011;13410;52.114;5.718;2023-06-26T02:02:13;10.40;;;8.63;;
25503;SDS011;13410;52.114;5.718;2023-06-26T02:04:39;11.38;;;9.27;;
25503;SDS011;13410;52.114;5.718;2023-06-26T02:07:05;10.38;;;9.27;;
25503;SDS011;13410;52.114;5.718;2023-06-26T02:09:31;10.25;;;9.20;;
25503;SDS011;13410;52.114;5.718;2023-06-26T02:11:57;10.32;;;8.93;;
25503;SDS011;13410;52.114;5.718;2023-06-26T02:14:22;9.50;;;8.50;;
25503;SDS011;13410;52.114;5.718;2023-06-26T02:16:48;10.82;;;8.43;;
25503;SDS011;13410;52.114;5.718;2023-06-26T02:19:14;9.57;;;7.90;;
25503;SDS011;13410;52.114;5.718;2023-06-26T02:21:46;10.30;;;7.60;;
25503;SDS011;13410;52.114;5.718;2023-06-26T02:24:14;8.60;;;7.40;;
25503;SDS011;13410;52.114;5.718;2023-06-26T02:26:40;10.20;;;7.70;;
25503;SDS011;13410;52.114;5.718;2023-06-26T02:29:08;9.88;;;7.45;;
25503;SDS011;13410;52.114;5.718;2023-06-26T02:31:34;11.90;;;7.50;;
25503;SDS011;13410;52.114;5.718;2023-06-26T02:34:01;10.35;;;7.32;;
25503;SDS011;13410;52.114;5.718;2023-06-26T02:36:30;8.75;;;7.10;;
25503;SDS011;13410;52.114;5.718;2023-06-26T02:39:04;11.75;;;7.65;;
25503;SDS011;13410;52.114;5.718;2023-06-26T02:41:30;11.05;;;7.30;;
25503;SDS011;13410;52.114;5.718;2023-06-26T02:43:56;7.35;;;6.32;;
25503;SDS011;13410;52.114;5.718;2023-06-26T02:46:21;14.52;;;7.10;;
25503;SDS011;13410;52.114;5.718;2023-06-26T02:48:47;11.60;;;6.50;;
25503;SDS011;13410;52.114;5.718;2023-06-26T02:51:12;9.65;;;5.93;;
25503;SDS011;13410;52.114;5.718;2023-06-26T02:53:38;9.77;;;6.43;;
25503;SDS011;13410;52.114;5.718;2023-06-26T02:56:04;7.93;;;5.72;;
25503;SDS011;13410;52.114;5.718;2023-06-26T02:58:30;9.75;;;5.78;;
25503;SDS011;13410;52.114;5.718;2023-06-26T03:00:55;10.40;;;6.05;;
25503;SDS011;13410;52.114;5.718;2023-06-26T03:03:21;8.07;;;5.47;;
25503;SDS011;13410;52.114;5.718;2023-06-26T03:05:47;10.90;;;5.97;;
25503;SDS011;13410;52.114;5.718;2023-06-26T03:08:12;10.95;;;6.28;;
25503;SDS011;13410;52.114;5.718;2023-06-26T03:10:38;10.45;;;5.80;;
25503;SDS011;13410;52.114;5.718;2023-06-26T03:13:03;9.15;;;5.22;;
25503;SDS011;13410;52.114;5.718;2023-06-26T03:15:29;11.38;;;5.93;;
25503;SDS011;13410;52.114;5.718;2023-06-26T03:17:54;10.35;;;5.25;;
25503;SDS011;13410;52.114;5.718;2023-06-26T03:20:20;9.18;;;5.68;;
25503;SDS011;13410;52.114;5.718;2023-06-26T03:22:45;11.38;;;5.70;;
25503;SDS011;13410;52.114;5.718;2023-06-26T03:25:11;12.18;;;5.57;;
25503;SDS011;13410;52.114;5.718;2023-06-26T03:27:36;10.52;;;5.13;;
25503;SDS011;13410;52.114;5.718;2023-06-26T03:30:02;10.57;;;5.53;;
25503;SDS011;13410;52.114;5.718;2023-06-26T03:32:28;8.65;;;5.07;;
25503;SDS011;13410;52.114;5.718;2023-06-26T03:34:53;9.73;;;5.05;;
25503;SDS011;13410;52.114;5.718;2023-06-26T03:37:19;10.02;;;5.25;;
25503;SDS011;13410;52.114;5.718;2023-06-26T03:39:45;10.40;;;5.25;;
25503;SDS011;13410;52.114;5.718;2023-06-26T03:42:11;9.75;;;5.72;;
25503;SDS011;13410;52.114;5.718;2023-06-26T03:44:37;9.93;;;5.50;;
25503;SDS011;13410;52.114;5.718;2023-06-26T03:47:02;8.93;;;5.50;;
25503;SDS011;13410;52.114;5.718;2023-06-26T03:49:28;9.75;;;5.68;;
25503;SDS011;13410;52.114;5.718;2023-06-26T03:51:53;10.32;;;5.00;;
25503;SDS011;13410;52.114;5.718;2023-06-26T03:54:19;10.48;;;5.05;;
25503;SDS011;13410;52.114;5.718;2023-06-26T03:56:44;9.73;;;4.80;;
25503;SDS011;13410;52.114;5.718;2023-06-26T03:59:10;8.23;;;4.70;;
25503;SDS011;13410;52.114;5.718;2023-06-26T04:01:36;8.50;;;4.80;;
25503;SDS011;13410;52.114;5.718;2023-06-26T04:04:02;11.05;;;5.18;;
25503;SDS011;13410;52.114;5.718;2023-06-26T04:06:28;6.57;;;4.13;;
25503;SDS011;13410;52.114;5.718;2023-06-26T04:08:56;9.68;;;4.50;;
25503;SDS011;13410;52.114;5.718;2023-06-26T04:11:22;11.45;;;5.20;;
25503;SDS011;13410;52.114;5.718;2023-06-26T04:13:47;10.27;;;5.07;;
25503;SDS011;13410;52.114;5.718;2023-06-26T04:16:13;10.38;;;4.70;;
25503;SDS011;13410;52.114;5.718;2023-06-26T04:18:39;10.07;;;4.28;;
25503;SDS011;13410;52.114;5.718;2023-06-26T04:21:05;9.02;;;4.50;;
25503;SDS011;13410;52.114;5.718;2023-06-26T04:23:32;11.27;;;4.55;;
25503;SDS011;13410;52.114;5.718;2023-06-26T04:25:58;12.98;;;4.90;;
25503;SDS011;13410;52.114;5.718;2023-06-26T04:28:24;13.68;;;5.20;;
25503;SDS011;13410;52.114;5.718;2023-06-26T04:30:49;12.05;;;5.43;;
25503;SDS011;13410;52.114;5.718;2023-06-26T04:33:15;12.45;;;5.32;;
25503;SDS011;13410;52.114;5.718;2023-06-26T04:35:41;14.93;;;5.43;;
25503;SDS011;13410;52.114;5.718;2023-06-26T04:38:09;14.27;;;5.55;;
25503;SDS011;13410;52.114;5.718;2023-06-26T04:40:36;13.15;;;5.38;;
25503;SDS011;13410;52.114;5.718;2023-06-26T04:43:02;14.25;;;5.00;;
25503;SDS011;13410;52.114;5.718;2023-06-26T04:45:28;13.25;;;5.35;;
25503;SDS011;13410;52.114;5.718;2023-06-26T04:47:54;14.52;;;5.47;;
25503;SDS011;13410;52.114;5.718;2023-06-26T04:50:21;16.20;;;5.40;;
25503;SDS011;13410;52.114;5.718;2023-06-26T04:52:47;13.00;;;5.28;;
25503;SDS011;13410;52.114;5.718;2023-06-26T04:55:13;11.60;;;5.45;;
25503;SDS011;13410;52.114;5.718;2023-06-26T04:57:38;11.52;;;5.05;;
25503;SDS011;13410;52.114;5.718;2023-06-26T05:00:04;11.48;;;5.00;;
25503;SDS011;13410;52.114;5.718;2023-06-26T05:05:00;11.50;;;4.75;;
25503;SDS011;13410;52.114;5.718;2023-06-26T05:07:26;12.52;;;4.60;;
25503;SDS011;13410;52.114;5.718;2023-06-26T05:09:51;10.55;;;4.57;;
25503;SDS011;13410;52.114;5.718;2023-06-26T05:12:17;12.25;;;3.95;;
25503;SDS011;13410;52.114;5.718;2023-06-26T05:14:43;12.00;;;4.60;;
25503;SDS011;13410;52.114;5.718;2023-06-26T05:17:08;9.18;;;4.60;;
25503;SDS011;13410;52.114;5.718;2023-06-26T05:19:34;11.20;;;4.45;;
25503;SDS011;13410;52.114;5.718;2023-06-26T05:22:00;12.65;;;4.75;;
25503;SDS011;13410;52.114;5.718;2023-06-26T05:24:29;10.93;;;4.50;;
25503;SDS011;13410;52.114;5.718;2023-06-26T05:26:55;11.63;;;4.85;;
25503;SDS011;13410;52.114;5.718;2023-06-26T05:29:21;8.82;;;4.32;;
25503;SDS011;13410;52.114;5.718;2023-06-26T05:31:47;10.25;;;4.32;;
25503;SDS011;13410;52.114;5.718;2023-06-26T05:34:15;10.52;;;4.53;;
25503;SDS011;13410;52.114;5.718;2023-06-26T05:36:43;10.30;;;4.03;;
25503;SDS011;13410;52.114;5.718;2023-06-26T05:39:09;10.57;;;4.00;;
25503;SDS011;13410;52.114;5.718;2023-06-26T05:41:35;7.85;;;3.92;;
25503;SDS011;13410;52.114;5.718;2023-06-26T05:44:01;6.75;;;3.40;;
25503;SDS011;13410;52.114;5.718;2023-06-26T05:46:27;6.65;;;3.38;;
25503;SDS011;13410;52.114;5.718;2023-06-26T05:48:52;11.23;;;4.00;;
25503;SDS011;13410;52.114;5.718;2023-06-26T05:51:18;6.07;;;3.30;;
25503;SDS011;13410;52.114;5.718;2023-06-26T05:53:44;9.00;;;4.10;;
25503;SDS011;13410;52.114;5.718;2023-06-26T05:56:10;9.75;;;3.80;;
25503;SDS011;13410;52.114;5.718;2023-06-26T05:58:35;7.95;;;3.72;;
25503;SDS011;13410;52.114;5.718;2023-06-26T06:01:01;7.15;;;3.60;;
25503;SDS011;13410;52.114;5.718;2023-06-26T06:03:27;8.77;;;3.50;;
25503;SDS011;13410;52.114;5.718;2023-06-26T06:05:52;7.93;;;3.28;;
25503;SDS011;13410;52.114;5.718;2023-06-26T06:08:18;7.32;;;3.40;;
25503;SDS011;13410;52.114;5.718;2023-06-26T06:10:43;6.43;;;3.10;;
25503;SDS011;13410;52.114;5.718;2023-06-26T06:13:09;5.60;;;2.88;;
25503;SDS011;13410;52.114;5.718;2023-06-26T06:15:34;7.38;;;3.40;;
25503;SDS011;13410;52.114;5.718;2023-06-26T06:18:00;8.73;;;2.90;;
25503;SDS011;13410;52.114;5.718;2023-06-26T06:20:25;6.38;;;2.83;;
25503;SDS011;13410;52.114;5.718;2023-06-26T06:22:51;5.82;;;2.60;;
25503;SDS011;13410;52.114;5.718;2023-06-26T06:25:16;6.07;;;3.00;;
25503;SDS011;13410;52.114;5.718;2023-06-26T06:27:42;5.40;;;2.67;;
25503;SDS011;13410;52.114;5.718;2023-06-26T06:30:08;4.68;;;2.78;;
25503;SDS011;13410;52.114;5.718;2023-06-26T06:32:34;4.63;;;2.45;;
25503;SDS011;13410;52.114;5.718;2023-06-26T06:35:00;9.18;;;2.80;;
25503;SDS011;13410;52.114;5.718;2023-06-26T06:37:32;3.10;;;2.40;;
25503;SDS011;13410;52.114;5.718;2023-06-26T06:39:57;6.60;;;2.83;;
25503;SDS011;13410;52.114;5.718;2023-06-26T06:42:24;5.18;;;2.50;;
25503;SDS011;13410;52.114;5.718;2023-06-26T06:44:50;7.10;;;4.07;;
25503;SDS011;13410;52.114;5.718;2023-06-26T06:47:15;5.60;;;2.58;;
25503;SDS011;13410;52.114;5.718;2023-06-26T06:49:41;4.88;;;2.60;;
25503;SDS011;13410;52.114;5.718;2023-06-26T06:52:07;5.47;;;2.65;;
25503;SDS011;13410;52.114;5.718;2023-06-26T06:54:33;5.28;;;2.55;;
25503;SDS011;13410;52.114;5.718;2023-06-26T06:57:20;4.43;;;2.45;;
25503;SDS011;13410;52.114;5.718;2023-06-26T06:59:46;3.08;;;2.05;;
25503;SDS011;13410;52.114;5.718;2023-06-26T07:02:12;5.47;;;2.13;;
25503;SDS011;13410;52.114;5.718;2023-06-26T07:04:38;5.45;;;2.17;;
25503;SDS011;13410;52.114;5.718;2023-06-26T07:07:03;2.95;;;2.03;;
25503;SDS011;13410;52.114;5.718;2023-06-26T07:09:29;5.05;;;2.30;;
25503;SDS011;13410;52.114;5.718;2023-06-26T07:11:55;4.18;;;2.20;;
25503;SDS011;13410;52.114;5.718;2023-06-26T07:14:20;6.20;;;2.15;;
25503;SDS011;13410;52.114;5.718;2023-06-26T07:16:46;4.82;;;2.50;;
25503;SDS011;13410;52.114;5.718;2023-06-26T07:19:11;4.05;;;2.10;;
25503;SDS011;13410;52.114;5.718;2023-06-26T07:21:37;4.40;;;2.20;;
25503;SDS011;13410;52.114;5.718;2023-06-26T07:24:02;5.05;;;2.67;;
25503;SDS011;13410;52.114;5.718;2023-06-26T07:26:28;5.05;;;2.63;;
25503;SDS011;13410;52.114;5.718;2023-06-26T07:28:53;5.60;;;2.58;;
25503;SDS011;13410;52.114;5.718;2023-06-26T07:31:21;5.40;;;2.65;;
25503;SDS011;13410;52.114;5.718;2023-06-26T07:33:47;5.30;;;2.50;;
25503;SDS011;13410;52.114;5.718;2023-06-26T07:36:13;5.50;;;2.58;;
25503;SDS011;13410;52.114;5.718;2023-06-26T07:38:38;4.25;;;2.50;;
25503;SDS011;13410;52.114;5.718;2023-06-26T07:41:04;6.55;;;2.85;;
25503;SDS011;13410;52.114;5.718;2023-06-26T07:43:29;6.78;;;2.70;;
25503;SDS011;13410;52.114;5.718;2023-06-26T07:45:56;3.90;;;2.50;;
25503;SDS011;13410;52.114;5.718;2023-06-26T07:48:23;3.75;;;2.33;;
25503;SDS011;13410;52.114;5.718;2023-06-26T07:50:49;6.57;;;2.78;;
25503;SDS011;13410;52.114;5.718;2023-06-26T07:53:15;5.07;;;2.70;;
25503;SDS011;13410;52.114;5.718;2023-06-26T07:55:41;4.60;;;2.38;;
25503;SDS011;13410;52.114;5.718;2023-06-26T07:58:07;5.68;;;2.72;;
25503;SDS011;13410;52.114;5.718;2023-06-26T08:00:33;5.38;;;3.00;;
25503;SDS011;13410;52.114;5.718;2023-06-26T08:02:59;5.13;;;2.80;;
25503;SDS011;13410;52.114;5.718;2023-06-26T08:05:24;4.90;;;2.80;;
25503;SDS011;13410;52.114;5.718;2023-06-26T08:07:50;5.20;;;2.53;;
25503;SDS011;13410;52.114;5.718;2023-06-26T08:10:15;4.55;;;2.60;;
25503;SDS011;13410;52.114;5.718;2023-06-26T08:12:41;4.13;;;2.75;;
25503;SDS011;13410;52.114;5.718;2023-06-26T08:15:10;6.50;;;3.20;;
25503;SDS011;13410;52.114;5.718;2023-06-26T08:17:36;7.07;;;3.00;;
25503;SDS011;13410;52.114;5.718;2023-06-26T08:20:03;5.78;;;3.30;;
25503;SDS011;13410;52.114;5.718;2023-06-26T08:22:30;7.05;;;3.25;;
25503;SDS011;13410;52.114;5.718;2023-06-26T08:24:56;4.32;;;2.78;;
25503;SDS011;13410;52.114;5.718;2023-06-26T08:27:21;6.57;;;2.83;;
25503;SDS011;13410;52.114;5.718;2023-06-26T08:29:47;5.13;;;2.80;;
25503;SDS011;13410;52.114;5.718;2023-06-26T08:32:13;6.95;;;3.50;;
25503;SDS011;13410;52.114;5.718;2023-06-26T08:34:38;4.07;;;2.72;;
25503;SDS011;13410;52.114;5.718;2023-06-26T08:37:04;5.82;;;2.75;;
25503;SDS011;13410;52.114;5.718;2023-06-26T08:39:29;6.32;;;2.70;;
25503;SDS011;13410;52.114;5.718;2023-06-26T08:41:55;5.30;;;2.92;;
25503;SDS011;13410;52.114;5.718;2023-06-26T08:44:21;8.30;;;2.90;;
25503;SDS011;13410;52.114;5.718;2023-06-26T08:46:49;7.60;;;3.05;;
25503;SDS011;13410;52.114;5.718;2023-06-26T08:49:20;4.03;;;2.35;;
25503;SDS011;13410;52.114;5.718;2023-06-26T08:52:02;4.03;;;2.60;;
25503;SDS011;13410;52.114;5.718;2023-06-26T08:54:43;6.63;;;2.67;;
25503;SDS011;13410;52.114;5.718;2023-06-26T08:57:12;4.93;;;2.03;;
25503;SDS011;13410;52.114;5.718;2023-06-26T08:59:40;5.65;;;2.40;;
25503;SDS011;13410;52.114;5.718;2023-06-26T09:02:06;4.25;;;2.10;;
25503;SDS011;13410;52.114;5.718;2023-06-26T09:04:32;5.70;;;2.28;;
25503;SDS011;13410;52.114;5.718;2023-06-26T09:06:57;7.65;;;2.20;;
25503;SDS011;13410;52.114;5.718;2023-06-26T09:09:23;3.60;;;1.92;;
25503;SDS011;13410;52.114;5.718;2023-06-26T09:11:48;3.83;;;2.00;;
25503;SDS011;13410;52.114;5.718;2023-06-26T09:14:14;5.70;;;2.15;;
25503;SDS011;13410;52.114;5.718;2023-06-26T09:16:40;3.38;;;1.70;;
25503;SDS011;13410;52.114;5.718;2023-06-26T09:19:13;5.55;;;1.50;;
25503;SDS011;13410;52.114;5.718;2023-06-26T09:21:40;3.08;;;1.40;;
25503;SDS011;13410;52.114;5.718;2023-06-26T09:24:06;5.72;;;1.90;;
25503;SDS011;13410;52.114;5.718;2023-06-26T09:26:34;6.32;;;1.70;;
25503;SDS011;13410;52.114;5.718;2023-06-26T09:29:05;3.03;;;1.45;;
25503;SDS011;13410;52.114;5.718;2023-06-26T09:31:38;5.72;;;1.50;;
25503;SDS011;13410;52.114;5.718;2023-06-26T09:34:04;5.38;;;1.60;;
25503;SDS011;13410;52.114;5.718;2023-06-26T09:36:31;5.47;;;1.60;;
25503;SDS011;13410;52.114;5.718;2023-06-26T09:39:04;6.60;;;1.50;;
25503;SDS011;13410;52.114;5.718;2023-06-26T09:41:34;4.00;;;1.23;;
25503;SDS011;13410;52.114;5.718;2023-06-26T09:44:01;4.22;;;1.30;;
25503;SDS011;13410;52.114;5.718;2023-06-26T09:46:28;3.90;;;1.15;;
25503;SDS011;13410;52.114;5.718;2023-06-26T09:48:58;3.85;;;1.40;;
25503;SDS011;13410;52.114;5.718;2023-06-26T09:51:29;2.92;;;1.35;;
25503;SDS011;13410;52.114;5.718;2023-06-26T09:53:56;4.05;;;1.40;;
25503;SDS011;13410;52.114;5.718;2023-06-26T09:56:22;2.78;;;1.23;;
25503;SDS011;13410;52.114;5.718;2023-06-26T09:58:48;3.03;;;1.40;;
25503;SDS011;13410;52.114;5.718;2023-06-26T10:01:14;5.20;;;1.52;;
25503;SDS011;13410;52.114;5.718;2023-06-26T10:03:40;2.90;;;1.20;;
25503;SDS011;13410;52.114;5.718;2023-06-26T10:06:05;2.90;;;1.00;;
25503;SDS011;13410;52.114;5.718;2023-06-26T10:08:34;3.20;;;1.10;;
25503;SDS011;13410;52.114;5.718;2023-06-26T10:11:02;3.63;;;1.30;;
25503;SDS011;13410;52.114;5.718;2023-06-26T10:13:29;2.78;;;1.40;;
25503;SDS011;13410;52.114;5.718;2023-06-26T10:15:59;2.85;;;1.27;;
25503;SDS011;13410;52.114;5.718;2023-06-26T10:18:26;2.95;;;1.20;;
25503;SDS011;13410;52.114;5.718;2023-06-26T10:20:55;5.95;;;1.40;;
25503;SDS011;13410;52.114;5.718;2023-06-26T10:23:23;3.20;;;1.10;;
25503;SDS011;13410;52.114;5.718;2023-06-26T10:25:51;3.55;;;1.42;;
25503;SDS011;13410;52.114;5.718;2023-06-26T10:28:18;4.47;;;1.65;;
25503;SDS011;13410;52.114;5.718;2023-06-26T10:30:46;2.65;;;1.30;;
25503;SDS011;13410;52.114;5.718;2023-06-26T10:33:15;5.72;;;1.50;;
25503;SDS011;13410;52.114;5.718;2023-06-26T10:35:44;3.65;;;1.42;;
25503;SDS011;13410;52.114;5.718;2023-06-26T10:38:11;2.97;;;1.20;;
25503;SDS011;13410;52.114;5.718;2023-06-26T10:40:40;6.38;;;1.48;;
25503;SDS011;13410;52.114;5.718;2023-06-26T10:43:08;2.53;;;1.25;;
25503;SDS011;13410;52.114;5.718;2023-06-26T10:45:35;2.13;;;1.17;;
25503;SDS011;13410;52.114;5.718;2023-06-26T10:48:01;3.85;;;1.30;;
25503;SDS011;13410;52.114;5.718;2023-06-26T10:50:30;3.50;;;1.20;;
25503;SDS011;13410;52.114;5.718;2023-06-26T10:58:30;3.33;;;1.00;;
25503;SDS011;13410;52.114;5.718;2023-06-26T11:03:44;3.58;;;1.20;;
25503;SDS011;13410;52.114;5.718;2023-06-26T11:06:18;4.00;;;1.52;;
25503;SDS011;13410;52.114;5.718;2023-06-26T11:11:14;2.33;;;0.90;;
25503;SDS011;13410;52.114;5.718;2023-06-26T11:13:40;2.55;;;1.10;;
25503;SDS011;13410;52.114;5.718;2023-06-26T11:16:08;3.58;;;1.20;;
25503;SDS011;13410;52.114;5.718;2023-06-26T11:18:33;2.17;;;1.00;;
25503;SDS011;13410;52.114;5.718;2023-06-26T11:21:09;3.95;;;1.20;;
25503;SDS011;13410;52.114;5.718;2023-06-26T11:23:37;5.20;;;1.13;;
25503;SDS011;13410;52.114;5.718;2023-06-26T11:26:13;5.30;;;1.52;;
25503;SDS011;13410;52.114;5.718;2023-06-26T11:28:53;2.55;;;1.10;;
25503;SDS011;13410;52.114;5.718;2023-06-26T11:31:27;3.03;;;1.23;;
25503;SDS011;13410;52.114;5.718;2023-06-26T11:33:55;3.45;;;1.30;;
25503;SDS011;13410;52.114;5.718;2023-06-26T11:36:24;5.10;;;1.30;;
25503;SDS011;13410;52.114;5.718;2023-06-26T11:38:57;5.40;;;1.60;;
25503;SDS011;13410;52.114;5.718;2023-06-26T11:41:25;2.22;;;1.13;;
25503;SDS011;13410;52.114;5.718;2023-06-26T11:43:53;7.32;;;1.40;;
25503;SDS011;13410;52.114;5.718;2023-06-26T11:46:19;2.90;;;1.10;;
25503;SDS011;13410;52.114;5.718;2023-06-26T11:48:45;3.10;;;1.17;;
25503;SDS011;13410;52.114;5.718;2023-06-26T11:51:15;4.05;;;1.25;;
25503;SDS011;13410;52.114;5.718;2023-06-26T11:53:44;2.20;;;1.10;;
25503;SDS011;13410;52.114;5.718;2023-06-26T11:56:11;2.20;;;1.10;;
25503;SDS011;13410;52.114;5.718;2023-06-26T12:01:23;3.72;;;1.30;;
25503;SDS011;13410;52.114;5.718;2023-06-26T12:03:50;2.63;;;0.90;;
25503;SDS011;13410;52.114;5.718;2023-06-26T12:06:16;2.47;;;1.23;;
25503;SDS011;13410;52.114;5.718;2023-06-26T12:08:42;4.40;;;1.15;;
25503;SDS011;13410;52.114;5.718;2023-06-26T12:11:08;4.85;;;1.15;;
25503;SDS011;13410;52.114;5.718;2023-06-26T12:13:34;4.05;;;1.30;;
25503;SDS011;13410;52.114;5.718;2023-06-26T12:16:00;4.85;;;1.20;;
25503;SDS011;13410;52.114;5.718;2023-06-26T12:18:32;2.08;;;1.13;;
25503;SDS011;13410;52.114;5.718;2023-06-26T12:20:59;3.17;;;0.95;;
25503;SDS011;13410;52.114;5.718;2023-06-26T12:23:31;2.35;;;1.00;;
25503;SDS011;13410;52.114;5.718;2023-06-26T12:25:58;4.20;;;1.00;;
25503;SDS011;13410;52.114;5.718;2023-06-26T12:28:24;2.67;;;0.80;;
25503;SDS011;13410;52.114;5.718;2023-06-26T12:33:45;1.98;;;0.88;;
25503;SDS011;13410;52.114;5.718;2023-06-26T12:36:11;3.40;;;0.90;;
25503;SDS011;13410;52.114;5.718;2023-06-26T12:38:38;3.65;;;1.00;;
25503;SDS011;13410;52.114;5.718;2023-06-26T12:41:03;4.18;;;1.00;;
25503;SDS011;13410;52.114;5.718;2023-06-26T12:43:29;2.95;;;0.90;;
25503;SDS011;13410;52.114;5.718;2023-06-26T12:45:55;3.45;;;0.80;;
25503;SDS011;13410;52.114;5.718;2023-06-26T12:48:21;4.35;;;1.00;;
25503;SDS011;13410;52.114;5.718;2023-06-26T12:50:47;2.42;;;0.98;;
25503;SDS011;13410;52.114;5.718;2023-06-26T12:53:15;1.83;;;0.90;;
25503;SDS011;13410;52.114;5.718;2023-06-26T12:55:40;3.00;;;0.80;;
25503;SDS011;13410;52.114;5.718;2023-06-26T12:58:06;3.40;;;0.90;;
25503;SDS011;13410;52.114;5.718;2023-06-26T13:00:32;2.83;;;0.70;;
25503;SDS011;13410;52.114;5.718;2023-06-26T13:02:58;3.33;;;0.90;;
25503;SDS011;13410;52.114;5.718;2023-06-26T13:05:24;3.40;;;1.08;;
25503;SDS011;13410;52.114;5.718;2023-06-26T13:07:49;1.98;;;0.77;;
25503;SDS011;13410;52.114;5.718;2023-06-26T13:10:15;3.20;;;0.80;;
25503;SDS011;13410;52.114;5.718;2023-06-26T13:12:41;1.95;;;1.00;;
25503;SDS011;13410;52.114;5.718;2023-06-26T13:15:07;3.33;;;1.08;;
25503;SDS011;13410;52.114;5.718;2023-06-26T13:17:33;2.80;;;0.90;;
25503;SDS011;13410;52.114;5.718;2023-06-26T13:19:59;2.45;;;0.90;;
25503;SDS011;13410;52.114;5.718;2023-06-26T13:22:25;2.85;;;0.90;;
25503;SDS011;13410;52.114;5.718;2023-06-26T13:24:50;2.08;;;0.80;;
25503;SDS011;13410;52.114;5.718;2023-06-26T13:27:16;3.28;;;0.80;;
25503;SDS011;13410;52.114;5.718;2023-06-26T13:29:41;2.22;;;0.80;;
25503;SDS011;13410;52.114;5.718;2023-06-26T13:32:07;3.40;;;0.80;;
25503;SDS011;13410;52.114;5.718;2023-06-26T13:34:33;2.63;;;0.80;;
25503;SDS011;13410;52.114;5.718;2023-06-26T13:36:58;2.90;;;1.10;;
25503;SDS011;13410;52.114;5.718;2023-06-26T13:39:25;3.53;;;0.80;;
25503;SDS011;13410;52.114;5.718;2023-06-26T13:41:50;1.65;;;0.80;;
25503;SDS011;13410;52.114;5.718;2023-06-26T13:44:16;2.72;;;1.10;;
25503;SDS011;13410;52.114;5.718;2023-06-26T13:46:42;1.88;;;0.60;;
25503;SDS011;13410;52.114;5.718;2023-06-26T13:49:07;3.40;;;0.70;;
25503;SDS011;13410;52.114;5.718;2023-06-26T13:51:33;2.90;;;0.95;;
25503;SDS011;13410;52.114;5.718;2023-06-26T13:53:58;1.90;;;0.75;;
25503;SDS011;13410;52.114;5.718;2023-06-26T13:56:25;2.33;;;0.80;;
25503;SDS011;13410;52.114;5.718;2023-06-26T13:58:51;2.83;;;0.68;;
25503;SDS011;13410;52.114;5.718;2023-06-26T14:01:17;4.65;;;1.10;;
25503;SDS011;13410;52.114;5.718;2023-06-26T14:03:42;5.38;;;1.02;;
25503;SDS011;13410;52.114;5.718;2023-06-26T14:06:08;3.45;;;1.38;;
25503;SDS011;13410;52.114;5.718;2023-06-26T14:08:33;3.33;;;0.90;;
25503;SDS011;13410;52.114;5.718;2023-06-26T14:10:59;2.95;;;0.70;;
25503;SDS011;13410;52.114;5.718;2023-06-26T14:13:26;4.45;;;1.00;;
25503;SDS011;13410;52.114;5.718;2023-06-26T14:15:51;3.00;;;0.85;;
25503;SDS011;13410;52.114;5.718;2023-06-26T14:18:17;2.55;;;1.00;;
25503;SDS011;13410;52.114;5.718;2023-06-26T14:20:43;3.03;;;0.90;;
25503;SDS011;13410;52.114;5.718;2023-06-26T14:23:09;2.40;;;0.90;;
25503;SDS011;13410;52.114;5.718;2023-06-26T14:25:34;1.95;;;1.10;;
25503;SDS011;13410;52.114;5.718;2023-06-26T14:28:01;2.83;;;1.10;;
25503;SDS011;13410;52.114;5.718;2023-06-26T14:30:26;3.90;;;0.88;;
25503;SDS011;13410;52.114;5.718;2023-06-26T14:32:52;4.32;;;1.15;;
25503;SDS011;13410;52.114;5.718;2023-06-26T14:35:17;1.90;;;0.95;;
25503;SDS011;13410;52.114;5.718;2023-06-26T14:37:43;2.40;;;1.10;;
25503;SDS011;13410;52.114;5.718;2023-06-26T14:40:09;6.53;;;1.00;;
25503;SDS011;13410;52.114;5.718;2023-06-26T14:42:35;2.97;;;1.00;;
25503;SDS011;13410;52.114;5.718;2023-06-26T14:45:00;2.60;;;0.93;;
25503;SDS011;13410;52.114;5.718;2023-06-26T14:47:26;2.85;;;0.95;;
25503;SDS011;13410;52.114;5.718;2023-06-26T14:49:52;2.63;;;0.88;;
25503;SDS011;13410;52.114;5.718;2023-06-26T14:52:18;3.40;;;1.00;;
25503;SDS011;13410;52.114;5.718;2023-06-26T14:54:43;1.48;;;0.75;;
25503;SDS011;13410;52.114;5.718;2023-06-26T14:57:09;2.00;;;1.00;;
25503;SDS011;13410;52.114;5.718;2023-06-26T14:59:35;3.13;;;0.82;;
25503;SDS011;13410;52.114;5.718;2023-06-26T15:02:01;3.13;;;1.08;;
25503;SDS011;13410;52.114;5.718;2023-06-26T15:04:27;3.40;;;1.20;;
25503;SDS011;13410;52.114;5.718;2023-06-26T15:06:52;2.08;;;0.90;;
25503;SDS011;13410;52.114;5.718;2023-06-26T15:09:18;2.38;;;1.00;;
25503;SDS011;13410;52.114;5.718;2023-06-26T15:11:44;1.23;;;0.85;;
25503;SDS011;13410;52.114;5.718;2023-06-26T15:14:09;3.47;;;1.17;;
25503;SDS011;13410;52.114;5.718;2023-06-26T15:16:35;2.78;;;1.00;;